sensor_id;sensor_type;location;lat;lon;timestamp;pressure;altitude;pressure_sealevel;temperature;humidity
42859;BME280;28505;56.970;40.998;2022-11-15T00:01:48;100386.16;;;-3.02;100.00
42859;BME280;28505;56.970;40.998;2022-11-15T00:07:34;100391.53;;;-2.89;100.00
42859;BME280;28505;56.970;40.998;2022-11-15T00:13:34;100404.63;;;-2.67;100.00
42859;BME280;28505;56.970;40.998;2022-11-15T00:19:18;100377.03;;;-2.71;100.00
42859;BME280;28505;56.970;40.998;2022-11-15T00:24:59;100365.00;;;-2.80;100.00
42859;BME280;28505;56.970;40.998;2022-11-15T00:30:40;100369.91;;;-2.71;100.00
42859;BME280;28505;56.970;40.998;2022-11-15T00:36:22;100373.97;;;-2.68;100.00
42859;BME280;28505;56.970;40.998;2022-11-15T00:42:08;100386.41;;;-2.55;100.00
42859;BME280;28505;56.970;40.998;2022-11-15T00:47:52;100355.28;;;-2.73;100.00
42859;BME280;28505;56.970;40.998;2022-11-15T00:53:33;100362.81;;;-2.70;100.00
42859;BME280;28505;56.970;40.998;2022-11-15T00:59:24;100364.03;;;-2.66;100.00
42859;BME280;28505;56.970;40.998;2022-11-15T01:05:07;100377.53;;;-2.48;100.00
42859;BME280;28505;56.970;40.998;2022-11-15T01:10:48;100355.97;;;-2.51;100.00
42859;BME280;28505;56.970;40.998;2022-11-15T01:16:30;100347.47;;;-2.47;100.00
42859;BME280;28505;56.970;40.998;2022-11-15T01:22:12;100354.78;;;-2.36;100.00
42859;BME280;28505;56.970;40.998;2022-11-15T01:27:53;100350.75;;;-2.31;100.00
42859;BME280;28505;56.970;40.998;2022-11-15T01:33:36;100359.72;;;-2.19;100.00
42859;BME280;28505;56.970;40.998;2022-11-15T01:39:18;100358.91;;;-2.13;100.00
42859;BME280;28505;56.970;40.998;2022-11-15T01:44:59;100352.22;;;-2.22;100.00
42859;BME280;28505;56.970;40.998;2022-11-15T01:50:42;100353.47;;;-2.05;100.00
42859;BME280;28505;56.970;40.998;2022-11-15T01:56:26;100344.91;;;-2.07;100.00
42859;BME280;28505;56.970;40.998;2022-11-15T02:02:14;100361.19;;;-1.97;100.00
42859;BME280;28505;56.970;40.998;2022-11-15T02:07:57;100359.38;;;-1.96;100.00
42859;BME280;28505;56.970;40.998;2022-11-15T02:13:39;100346.34;;;-1.98;100.00
42859;BME280;28505;56.970;40.998;2022-11-15T02:38:41;100364.88;;;-1.65;100.00
42859;BME280;28505;56.970;40.998;2022-11-15T02:44:36;100341.09;;;-1.71;100.00
42859;BME280;28505;56.970;40.998;2022-11-15T02:50:23;100335.81;;;-1.71;100.00
42859;BME280;28505;56.970;40.998;2022-11-15T02:56:11;100330.09;;;-1.75;100.00
42859;BME280;28505;56.970;40.998;2022-11-15T03:02:22;100357.75;;;-1.51;100.00
42859;BME280;28505;56.970;40.998;2022-11-15T03:08:19;100355.50;;;-1.54;100.00
42859;BME280;28505;56.970;40.998;2022-11-15T03:14:08;100362.22;;;-1.45;100.00
42859;BME280;28505;56.970;40.998;2022-11-15T03:20:01;100331.13;;;-1.56;100.00
42859;BME280;28505;56.970;40.998;2022-11-15T03:25:47;100326.03;;;-1.51;100.00
42859;BME280;28505;56.970;40.998;2022-11-15T03:31:34;100317.91;;;-1.49;100.00
42859;BME280;28505;56.970;40.998;2022-11-15T03:38:01;100327.84;;;-1.45;100.00
42859;BME280;28505;56.970;40.998;2022-11-15T03:44:01;100332.13;;;-1.37;100.00
42859;BME280;28505;56.970;40.998;2022-11-15T03:49:49;100334.97;;;-1.32;100.00
42859;BME280;28505;56.970;40.998;2022-11-15T03:55:32;100340.66;;;-1.28;100.00
42859;BME280;28505;56.970;40.998;2022-11-15T04:01:15;100321.16;;;-1.34;100.00
42859;BME280;28505;56.970;40.998;2022-11-15T04:06:57;100333.34;;;-1.33;100.00
42859;BME280;28505;56.970;40.998;2022-11-15T04:12:41;100323.56;;;-1.39;100.00
42859;BME280;28505;56.970;40.998;2022-11-15T04:18:24;100345.13;;;-1.22;100.00
42859;BME280;28505;56.970;40.998;2022-11-15T04:24:06;100341.25;;;-1.26;100.00
42859;BME280;28505;56.970;40.998;2022-11-15T04:29:53;100359.53;;;-1.11;100.00
42859;BME280;28505;56.970;40.998;2022-11-15T04:35:34;100316.66;;;-1.33;100.00
42859;BME280;28505;56.970;40.998;2022-11-15T04:41:15;100319.91;;;-1.31;100.00
42859;BME280;28505;56.970;40.998;2022-11-15T04:47:02;100325.59;;;-1.34;100.00
42859;BME280;28505;56.970;40.998;2022-11-15T04:52:51;100319.50;;;-1.28;100.00
42859;BME280;28505;56.970;40.998;2022-11-15T04:58:34;100334.53;;;-1.22;100.00
42859;BME280;28505;56.970;40.998;2022-11-15T05:04:18;100339.03;;;-1.23;100.00
42859;BME280;28505;56.970;40.998;2022-11-15T05:09:59;100338.22;;;-1.23;100.00
42859;BME280;28505;56.970;40.998;2022-11-15T05:15:43;100333.34;;;-1.26;100.00
42859;BME280;28505;56.970;40.998;2022-11-15T05:21:27;100353.03;;;-1.09;100.00
42859;BME280;28505;56.970;40.998;2022-11-15T05:27:09;100341.03;;;-1.18;100.00
42859;BME280;28505;56.970;40.998;2022-11-15T05:32:49;100356.88;;;-1.11;100.00
42859;BME280;28505;56.970;40.998;2022-11-15T05:38:31;100345.72;;;-1.13;100.00
42859;BME280;28505;56.970;40.998;2022-11-15T05:44:17;100363.19;;;-1.06;100.00
42859;BME280;28505;56.970;40.998;2022-11-15T05:50:04;100346.13;;;-1.16;100.00
42859;BME280;28505;56.970;40.998;2022-11-15T05:55:47;100346.94;;;-1.09;100.00
42859;BME280;28505;56.970;40.998;2022-11-15T06:01:32;100344.50;;;-1.11;100.00
42859;BME280;28505;56.970;40.998;2022-11-15T06:07:14;100361.56;;;-1.00;100.00
42859;BME280;28505;56.970;40.998;2022-11-15T06:13:04;100337.16;;;-1.09;100.00
42859;BME280;28505;56.970;40.998;2022-11-15T06:18:46;100339.97;;;-0.97;100.00
42859;BME280;28505;56.970;40.998;2022-11-15T06:24:31;100320.84;;;-0.99;100.00
42859;BME280;28505;56.970;40.998;2022-11-15T06:30:12;100321.44;;;-0.90;100.00
42859;BME280;28505;56.970;40.998;2022-11-15T06:35:53;100323.47;;;-0.92;100.00
42859;BME280;28505;56.970;40.998;2022-11-15T06:41:34;100317.34;;;-0.86;100.00
42859;BME280;28505;56.970;40.998;2022-11-15T06:47:15;100332.59;;;-0.75;100.00
42859;BME280;28505;56.970;40.998;2022-11-15T06:53:00;100321.81;;;-0.80;100.00
42859;BME280;28505;56.970;40.998;2022-11-15T06:58:42;100335.59;;;-0.65;100.00
42859;BME280;28505;56.970;40.998;2022-11-15T07:04:25;100317.28;;;-0.73;100.00
42859;BME280;28505;56.970;40.998;2022-11-15T07:10:07;100335.16;;;-0.55;100.00
42859;BME280;28505;56.970;40.998;2022-11-15T07:15:48;100328.63;;;-0.59;100.00
42859;BME280;28505;56.970;40.998;2022-11-15T07:21:28;100320.72;;;-0.66;100.00
42859;BME280;28505;56.970;40.998;2022-11-15T07:27:10;100328.25;;;-0.63;100.00
42859;BME280;28505;56.970;40.998;2022-11-15T07:32:56;100318.03;;;-0.59;100.00
42859;BME280;28505;56.970;40.998;2022-11-15T07:38:37;100315.78;;;-0.56;100.00
42859;BME280;28505;56.970;40.998;2022-11-15T07:44:21;100328.97;;;-0.42;100.00
42859;BME280;28505;56.970;40.998;2022-11-15T07:50:02;100326.34;;;-0.42;100.00
42859;BME280;28505;56.970;40.998;2022-11-15T07:55:45;100309.88;;;-0.51;100.00
42859;BME280;28505;56.970;40.998;2022-11-15T08:01:28;100336.47;;;-0.33;100.00
42859;BME280;28505;56.970;40.998;2022-11-15T08:07:09;100339.25;;;-0.21;100.00
42859;BME280;28505;56.970;40.998;2022-11-15T08:13:06;100327.59;;;-0.20;100.00
42859;BME280;28505;56.970;40.998;2022-11-15T08:18:48;100319.50;;;-0.25;100.00
42859;BME280;28505;56.970;40.998;2022-11-15T08:24:29;100307.50;;;-0.28;100.00
42859;BME280;28505;56.970;40.998;2022-11-15T08:30:11;100306.88;;;-0.30;100.00
42859;BME280;28505;56.970;40.998;2022-11-15T08:35:52;100317.63;;;-0.18;100.00
42859;BME280;28505;56.970;40.998;2022-11-15T08:41:39;100289.31;;;-0.24;100.00
42859;BME280;28505;56.970;40.998;2022-11-15T08:47:30;100299.03;;;-0.11;100.00
42859;BME280;28505;56.970;40.998;2022-11-15T08:53:14;100308.53;;;-0.04;100.00
42859;BME280;28505;56.970;40.998;2022-11-15T08:58:55;100285.13;;;-0.07;100.00
42859;BME280;28505;56.970;40.998;2022-11-15T09:04:49;100279.25;;;-0.09;100.00
42859;BME280;28505;56.970;40.998;2022-11-15T09:10:32;100284.25;;;-0.01;100.00
42859;BME280;28505;56.970;40.998;2022-11-15T09:16:14;100282.22;;;0.02;100.00
42859;BME280;28505;56.970;40.998;2022-11-15T09:22:04;100286.53;;;-0.04;100.00
42859;BME280;28505;56.970;40.998;2022-11-15T09:27:47;100296.50;;;0.01;100.00
42859;BME280;28505;56.970;40.998;2022-11-15T09:33:35;100297.75;;;-0.02;100.00
42859;BME280;28505;56.970;40.998;2022-11-15T09:39:22;100287.53;;;0.02;100.00
42859;BME280;28505;56.970;40.998;2022-11-15T09:45:28;100281.03;;;-0.03;100.00
42859;BME280;28505;56.970;40.998;2022-11-15T09:52:09;100247.31;;;-0.20;100.00
42859;BME280;28505;56.970;40.998;2022-11-15T09:58:24;100293.63;;;0.02;100.00
42859;BME280;28505;56.970;40.998;2022-11-15T10:04:03;100240.69;;;-0.36;100.00
42859;BME280;28505;56.970;40.998;2022-11-15T10:09:45;100246.59;;;-0.34;100.00
42859;BME280;28505;56.970;40.998;2022-11-15T10:15:47;100248.22;;;-0.33;100.00
42859;BME280;28505;56.970;40.998;2022-11-15T10:28:31;100218.97;;;-0.45;100.00
42859;BME280;28505;56.970;40.998;2022-11-15T10:34:35;100255.50;;;-0.22;100.00
42859;BME280;28505;56.970;40.998;2022-11-15T10:52:18;100223.78;;;-0.35;100.00
42859;BME280;28505;56.970;40.998;2022-11-15T10:58:21;100246.88;;;-0.17;100.00
42859;BME280;28505;56.970;40.998;2022-11-15T11:04:04;100208.75;;;-0.41;100.00
42859;BME280;28505;56.970;40.998;2022-11-15T11:09:37;100209.78;;;-0.42;100.00
42859;BME280;28505;56.970;40.998;2022-11-15T11:15:16;100244.50;;;-0.26;100.00
42859;BME280;28505;56.970;40.998;2022-11-15T11:20:56;100195.34;;;-0.47;100.00
42859;BME280;28505;56.970;40.998;2022-11-15T11:26:46;100239.22;;;-0.26;100.00
42859;BME280;28505;56.970;40.998;2022-11-15T11:32:30;100238.41;;;-0.26;100.00
42859;BME280;28505;56.970;40.998;2022-11-15T11:49:52;100200.09;;;-0.55;100.00
42859;BME280;28505;56.970;40.998;2022-11-15T11:55:46;100191.41;;;-0.69;100.00
42859;BME280;28505;56.970;40.998;2022-11-15T12:01:41;100190.56;;;-0.63;100.00
42859;BME280;28505;56.970;40.998;2022-11-15T12:12:44;100225.69;;;-0.42;100.00
42859;BME280;28505;56.970;40.998;2022-11-15T12:18:15;100212.50;;;-0.56;100.00
42859;BME280;28505;56.970;40.998;2022-11-15T12:23:50;100223.22;;;-0.44;100.00
42859;BME280;28505;56.970;40.998;2022-11-15T12:29:43;100204.78;;;-0.57;100.00
42859;BME280;28505;56.970;40.998;2022-11-15T12:35:35;100220.44;;;-0.49;100.00
42859;BME280;28505;56.970;40.998;2022-11-15T12:41:14;100201.56;;;-0.66;100.00
42859;BME280;28505;56.970;40.998;2022-11-15T12:57:29;100198.69;;;-0.58;100.00
42859;BME280;28505;56.970;40.998;2022-11-15T13:03:19;100205.59;;;-0.57;100.00
42859;BME280;28505;56.970;40.998;2022-11-15T13:08:45;100210.69;;;-0.55;100.00
42859;BME280;28505;56.970;40.998;2022-11-15T13:20:17;100173.72;;;-0.68;100.00
42859;BME280;28505;56.970;40.998;2022-11-15T13:26:02;100160.16;;;-0.85;100.00
42859;BME280;28505;56.970;40.998;2022-11-15T13:31:29;100192.44;;;-0.70;100.00
42859;BME280;28505;56.970;40.998;2022-11-15T13:36:55;100193.47;;;-0.71;100.00
42859;BME280;28505;56.970;40.998;2022-11-15T13:42:20;100177.84;;;-0.79;100.00
42859;BME280;28505;56.970;40.998;2022-11-15T13:47:42;100170.53;;;-0.84;100.00
42859;BME280;28505;56.970;40.998;2022-11-15T13:53:04;100169.56;;;-0.89;100.00
42859;BME280;28505;56.970;40.998;2022-11-15T13:58:27;100159.88;;;-1.09;100.00
42859;BME280;28505;56.970;40.998;2022-11-15T14:03:56;100169.69;;;-1.16;100.00
42859;BME280;28505;56.970;40.998;2022-11-15T14:14:54;100167.34;;;-1.31;100.00
42859;BME280;28505;56.970;40.998;2022-11-15T14:20:37;100161.66;;;-1.41;100.00
42859;BME280;28505;56.970;40.998;2022-11-15T14:26:01;100158.47;;;-1.56;100.00
42859;BME280;28505;56.970;40.998;2022-11-15T14:31:31;100145.50;;;-1.71;100.00
42859;BME280;28505;56.970;40.998;2022-11-15T14:36:53;100166.84;;;-1.66;100.00
42859;BME280;28505;56.970;40.998;2022-11-15T14:42:16;100159.75;;;-1.72;100.00
42859;BME280;28505;56.970;40.998;2022-11-15T14:47:38;100152.41;;;-1.77;100.00
42859;BME280;28505;56.970;40.998;2022-11-15T14:53:01;100116.31;;;-2.09;100.00
42859;BME280;28505;56.970;40.998;2022-11-15T14:58:32;100107.41;;;-2.15;100.00
42859;BME280;28505;56.970;40.998;2022-11-15T15:03:56;100154.50;;;-1.92;100.00
42859;BME280;28505;56.970;40.998;2022-11-15T15:09:19;100094.00;;;-2.27;100.00
42859;BME280;28505;56.970;40.998;2022-11-15T15:14:44;100115.91;;;-2.13;100.00
42859;BME280;28505;56.970;40.998;2022-11-15T15:20:14;100086.31;;;-2.35;100.00
42859;BME280;28505;56.970;40.998;2022-11-15T15:25:40;100082.84;;;-2.42;100.00
42859;BME280;28505;56.970;40.998;2022-11-15T15:31:17;100079.00;;;-2.46;100.00
42859;BME280;28505;56.970;40.998;2022-11-15T15:43:06;100101.53;;;-2.44;100.00
42859;BME280;28505;56.970;40.998;2022-11-15T15:55:00;100133.44;;;-2.32;100.00
42859;BME280;28505;56.970;40.998;2022-11-15T16:00:31;100098.28;;;-2.59;100.00
42859;BME280;28505;56.970;40.998;2022-11-15T16:06:37;100073.34;;;-2.76;100.00
42859;BME280;28505;56.970;40.998;2022-11-15T16:18:19;100086.75;;;-2.71;100.00
42859;BME280;28505;56.970;40.998;2022-11-15T16:23:52;100081.03;;;-2.68;100.00
42859;BME280;28505;56.970;40.998;2022-11-15T16:29:22;100068.06;;;-2.63;100.00
42859;BME280;28505;56.970;40.998;2022-11-15T16:34:47;100056.28;;;-2.61;100.00
42859;BME280;28505;56.970;40.998;2022-11-15T16:40:29;100100.09;;;-2.26;100.00
42859;BME280;28505;56.970;40.998;2022-11-15T16:45:52;100046.13;;;-2.57;100.00
42859;BME280;28505;56.970;40.998;2022-11-15T16:51:16;100042.06;;;-2.66;100.00
42859;BME280;28505;56.970;40.998;2022-11-15T16:56:56;100058.28;;;-2.56;100.00
42859;BME280;28505;56.970;40.998;2022-11-15T17:08:27;100033.53;;;-2.68;100.00
42859;BME280;28505;56.970;40.998;2022-11-15T17:13:57;100042.47;;;-2.69;100.00
42859;BME280;28505;56.970;40.998;2022-11-15T17:19:45;100060.34;;;-2.58;100.00
42859;BME280;28505;56.970;40.998;2022-11-15T17:37:05;100053.81;;;-2.62;100.00
42859;BME280;28505;56.970;40.998;2022-11-15T17:43:13;100076.56;;;-2.48;100.00
42859;BME280;28505;56.970;40.998;2022-11-15T17:48:46;100040.25;;;-2.72;100.00
42859;BME280;28505;56.970;40.998;2022-11-15T17:54:23;100049.78;;;-2.65;100.00
42859;BME280;28505;56.970;40.998;2022-11-15T18:00:04;100090.75;;;-2.36;100.00
42859;BME280;28505;56.970;40.998;2022-11-15T18:05:29;100041.25;;;-2.60;100.00
42859;BME280;28505;56.970;40.998;2022-11-15T18:11:07;100028.06;;;-2.67;100.00
42859;BME280;28505;56.970;40.998;2022-11-15T18:16:33;100078.16;;;-2.33;100.00
42859;BME280;28505;56.970;40.998;2022-11-15T18:21:56;100047.16;;;-2.65;100.00
42859;BME280;28505;56.970;40.998;2022-11-15T18:27:20;100055.47;;;-2.61;100.00
42859;BME280;28505;56.970;40.998;2022-11-15T18:32:45;100059.50;;;-2.59;100.00
42859;BME280;28505;56.970;40.998;2022-11-15T18:38:07;100048.38;;;-2.61;100.00
42859;BME280;28505;56.970;40.998;2022-11-15T18:43:30;100041.66;;;-2.63;100.00
42859;BME280;28505;56.970;40.998;2022-11-15T18:48:53;100048.56;;;-2.62;100.00
42859;BME280;28505;56.970;40.998;2022-11-15T18:54:18;100054.22;;;-2.59;100.00
42859;BME280;28505;56.970;40.998;2022-11-15T18:59:41;100069.88;;;-2.50;100.00
42859;BME280;28505;56.970;40.998;2022-11-15T19:05:03;100065.00;;;-2.53;100.00
42859;BME280;28505;56.970;40.998;2022-11-15T19:10:26;100039.63;;;-2.61;100.00
42859;BME280;28505;56.970;40.998;2022-11-15T19:15:56;100037.97;;;-2.49;100.00
42859;BME280;28505;56.970;40.998;2022-11-15T19:21:18;100034.75;;;-2.44;100.00
42859;BME280;28505;56.970;40.998;2022-11-15T19:26:54;100042.84;;;-2.39;100.00
42859;BME280;28505;56.970;40.998;2022-11-15T19:32:17;100061.91;;;-2.30;100.00
42859;BME280;28505;56.970;40.998;2022-11-15T19:37:39;100061.28;;;-2.26;100.00
42859;BME280;28505;56.970;40.998;2022-11-15T19:43:01;100060.69;;;-2.21;100.00
42859;BME280;28505;56.970;40.998;2022-11-15T19:48:23;100069.22;;;-2.13;100.00
42859;BME280;28505;56.970;40.998;2022-11-15T19:53:46;100066.75;;;-2.14;100.00
42859;BME280;28505;56.970;40.998;2022-11-15T19:59:08;100070.81;;;-2.05;100.00
42859;BME280;28505;56.970;40.998;2022-11-15T20:04:32;100070.19;;;-2.07;100.00
42859;BME280;28505;56.970;40.998;2022-11-15T20:09:54;100072.03;;;-2.07;100.00
42859;BME280;28505;56.970;40.998;2022-11-15T20:15:16;100063.50;;;-2.16;100.00
42859;BME280;28505;56.970;40.998;2022-11-15T20:20:38;100066.31;;;-2.04;100.00
42859;BME280;28505;56.970;40.998;2022-11-15T21:25:37;100030.97;;;-2.10;100.00
42859;BME280;28505;56.970;40.998;2022-11-15T21:31:00;100022.28;;;-2.17;100.00
42859;BME280;28505;56.970;40.998;2022-11-15T21:36:22;100014.56;;;-2.19;100.00
42859;BME280;28505;56.970;40.998;2022-11-15T21:41:45;100022.09;;;-2.16;100.00
42859;BME280;28505;56.970;40.998;2022-11-15T21:47:07;100029.38;;;-2.11;100.00
42859;BME280;28505;56.970;40.998;2022-11-15T21:52:29;100001.81;;;-2.28;100.00
42859;BME280;28505;56.970;40.998;2022-11-15T21:57:52;100018.41;;;-2.15;100.00
42859;BME280;28505;56.970;40.998;2022-11-15T22:03:14;100031.75;;;-2.03;100.00
42859;BME280;28505;56.970;40.998;2022-11-15T22:08:36;100034.00;;;-2.00;100.00
42859;BME280;28505;56.970;40.998;2022-11-15T22:13:58;100027.28;;;-1.96;100.00
42859;BME280;28505;56.970;40.998;2022-11-15T22:19:20;100004.34;;;-2.02;100.00
42859;BME280;28505;56.970;40.998;2022-11-15T22:24:43;100009.63;;;-2.02;100.00
42859;BME280;28505;56.970;40.998;2022-11-15T22:30:05;100017.31;;;-1.94;100.00
42859;BME280;28505;56.970;40.998;2022-11-15T22:35:28;100009.63;;;-2.02;100.00
42859;BME280;28505;56.970;40.998;2022-11-15T22:40:50;100016.34;;;-1.99;100.00
42859;BME280;28505;56.970;40.998;2022-11-15T22:46:13;100008.47;;;-2.13;100.00
42859;BME280;28505;56.970;40.998;2022-11-15T22:51:35;100001.53;;;-2.14;100.00
42859;BME280;28505;56.970;40.998;2022-11-15T22:56:59;100013.50;;;-2.11;100.00
42859;BME280;28505;56.970;40.998;2022-11-15T23:02:22;99995.66;;;-2.16;100.00
42859;BME280;28505;56.970;40.998;2022-11-15T23:07:44;100016.94;;;-2.04;100.00
42859;BME280;28505;56.970;40.998;2022-11-15T23:13:12;100015.75;;;-2.08;100.00
42859;BME280;28505;56.970;40.998;2022-11-15T23:18:38;100014.31;;;-2.10;100.00
42859;BME280;28505;56.970;40.998;2022-11-15T23:24:09;99964.88;;;-2.42;100.00
42859;BME280;28505;56.970;40.998;2022-11-15T23:29:35;99963.25;;;-2.49;100.00
42859;BME280;28505;56.970;40.998;2022-11-15T23:35:24;99956.97;;;-2.48;100.00
42859;BME280;28505;56.970;40.998;2022-11-15T23:40:53;99953.13;;;-2.52;100.00
42859;BME280;28505;56.970;40.998;2022-11-15T23:46:28;99976.63;;;-2.38;100.00
42859;BME280;28505;56.970;40.998;2022-11-15T23:51:54;99951.53;;;-2.60;100.00
42859;BME280;28505;56.970;40.998;2022-11-15T23:57:17;99965.75;;;-2.61;100.00
